Time;durP1;ratioP1;P1;durP2;ratioP2;P2;SDS_P1;SDS_P2;PMS_P1;PMS_P2;Temp;Humidity;BMP_temperature;BMP_pressure;BME280_temperature;BME280_humidity;BME280_pressure;Samples;Min_cycle;Max_cycle;Signal;HPM_P1;HPM_P2
2022/01/26 00:07:16;;;;;;;86.88;39.85;;;;;;;;;;5029837;28;20052;-59
2022/01/26 00:09:42;;;;;;;95.95;42.35;;;;;;;;;;5029487;28;20028;-59
2022/01/26 00:12:09;;;;;;;85.78;39.97;;;;;;;;;;5030629;28;20032;-59
2022/01/26 00:14:38;;;;;;;93.55;43.35;;;;;;;;;;5028986;28;20552;-58
2022/01/26 00:17:04;;;;;;;89.57;42.70;;;;;;;;;;5028862;28;20025;-58
2022/01/26 00:19:46;;;;;;;91.13;45.17;;;;;;;;;;5031183;28;20025;-59
2022/01/26 00:22:23;;;;;;;89.03;42.47;;;;;;;;;;5033835;28;20247;-58
2022/01/26 00:25:06;;;;;;;83.97;43.92;;;;;;;;;;5030693;28;20086;-59
2022/01/26 00:27:48;;;;;;;86.53;43.42;;;;;;;;;;5032566;28;20032;-59
2022/01/26 00:31:59;;;;;;;83.93;40.80;;;;;;;;;;5028715;28;20399;-59
2022/01/26 00:38:38;;;;;;;83.95;42.03;;;;;;;;;;5032127;28;20721;-58
2022/01/26 00:41:08;;;;;;;79.22;41.65;;;;;;;;;;5030215;28;20055;-59
2022/01/26 00:43:35;;;;;;;84.68;40.60;;;;;;;;;;5028396;28;20032;-58
2022/01/26 00:46:03;;;;;;;87.40;43.97;;;;;;;;;;5030628;28;20021;-59
2022/01/26 00:48:34;;;;;;;85.53;43.70;;;;;;;;;;5028200;28;20429;-58
2022/01/26 00:51:04;;;;;;;82.10;43.30;;;;;;;;;;5032618;28;20031;-58
2022/01/26 00:53:34;;;;;;;86.28;42.90;;;;;;;;;;5030611;28;20037;-58
2022/01/26 00:56:01;;;;;;;90.78;46.22;;;;;;;;;;5032280;28;20027;-59
2022/01/26 00:58:27;;;;;;;90.55;45.42;;;;;;;;;;5031121;28;20033;-58
2022/01/26 01:00:54;;;;;;;84.75;44.33;;;;;;;;;;5031301;28;20507;-59
2022/01/26 01:03:21;;;;;;;95.68;48.00;;;;;;;;;;5029345;28;20029;-59
2022/01/26 01:08:19;;;;;;;96.38;49.30;;;;;;;;;;5029372;28;20215;-60
2022/01/26 01:10:48;;;;;;;91.35;46.92;;;;;;;;;;5027706;28;20021;-59
2022/01/26 01:13:17;;;;;;;98.55;49.90;;;;;;;;;;5025783;28;20030;-59
2022/01/26 01:15:44;;;;;;;106.18;51.20;;;;;;;;;;5026588;28;20036;-59
2022/01/26 01:23:36;;;;;;;106.68;50.97;;;;;;;;;;5027136;28;20041;-59
2022/01/26 01:31:42;;;;;;;117.18;52.03;;;;;;;;;;5027314;28;20088;-58
2022/01/26 01:34:08;;;;;;;115.50;54.45;;;;;;;;;;5030115;28;20437;-59
2022/01/26 01:36:36;;;;;;;124.88;54.13;;;;;;;;;;5030849;28;20029;-59
2022/01/26 01:39:03;;;;;;;122.82;54.20;;;;;;;;;;5029761;28;20029;-59
2022/01/26 01:41:29;;;;;;;124.40;54.40;;;;;;;;;;5030021;28;20116;-58
2022/01/26 01:43:55;;;;;;;121.70;55.30;;;;;;;;;;5028306;28;20982;-58
2022/01/26 01:46:21;;;;;;;115.82;54.70;;;;;;;;;;5030109;28;20025;-58
2022/01/26 01:48:47;;;;;;;121.68;55.97;;;;;;;;;;5031459;28;20025;-59
2022/01/26 01:51:16;;;;;;;126.50;57.55;;;;;;;;;;5032886;28;20037;-59
2022/01/26 01:53:44;;;;;;;127.10;57.83;;;;;;;;;;5030369;28;20056;-59
2022/01/26 01:56:11;;;;;;;133.50;57.63;;;;;;;;;;5031115;28;20420;-58
2022/01/26 01:58:38;;;;;;;136.68;58.25;;;;;;;;;;5029023;28;20061;-59
2022/01/26 02:01:04;;;;;;;139.77;60.92;;;;;;;;;;5029202;28;20021;-59
2022/01/26 02:03:30;;;;;;;137.13;59.95;;;;;;;;;;5026955;28;20057;-59
2022/01/26 02:05:57;;;;;;;140.75;61.40;;;;;;;;;;5028210;28;20072;-59
2022/01/26 02:08:23;;;;;;;137.02;60.10;;;;;;;;;;5029358;28;20047;-59
2022/01/26 02:10:49;;;;;;;132.80;57.58;;;;;;;;;;5029076;28;20100;-59
2022/01/26 02:13:30;;;;;;;134.52;58.70;;;;;;;;;;5031161;28;20033;-58
2022/01/26 02:16:06;;;;;;;130.05;59.97;;;;;;;;;;5028762;28;20025;-59
2022/01/26 02:18:56;;;;;;;139.48;59.80;;;;;;;;;;5028655;28;20033;-58
2022/01/26 02:21:38;;;;;;;135.07;59.20;;;;;;;;;;5027818;28;20047;-58
2022/01/26 03:02:03;;;;;;;136.82;61.50;;;;;;;;;;5035253;28;20034;-58
2022/01/26 03:09:32;;;;;;;135.63;56.70;;;;;;;;;;5033034;28;20041;-58
2022/01/26 03:12:00;;;;;;;137.32;60.50;;;;;;;;;;5034537;28;20061;-59
2022/01/26 03:17:01;;;;;;;142.10;57.90;;;;;;;;;;5029594;28;20087;-58
2022/01/26 03:19:47;;;;;;;131.30;56.33;;;;;;;;;;5033347;28;20419;-58
2022/01/26 03:30:19;;;;;;;139.95;58.03;;;;;;;;;;5028735;28;20654;-59
2022/01/26 03:33:07;;;;;;;134.30;57.03;;;;;;;;;;5030786;28;20420;-60
2022/01/26 03:35:42;;;;;;;130.90;56.80;;;;;;;;;;5031469;28;20025;-59
2022/01/26 03:38:16;;;;;;;143.35;58.45;;;;;;;;;;5032941;28;20112;-59
2022/01/26 03:40:42;;;;;;;144.90;59.17;;;;;;;;;;5031377;28;20035;-58
2022/01/26 03:43:08;;;;;;;136.77;57.83;;;;;;;;;;5033760;28;20112;-58
2022/01/26 03:45:34;;;;;;;141.95;59.05;;;;;;;;;;5031859;28;20470;-59
2022/01/26 03:48:00;;;;;;;134.32;55.47;;;;;;;;;;5033176;28;20333;-59
2022/01/26 03:50:27;;;;;;;135.50;55.60;;;;;;;;;;5030347;28;20091;-59
2022/01/26 03:52:54;;;;;;;138.00;57.10;;;;;;;;;;5029652;28;20057;-58
2022/01/26 03:55:20;;;;;;;136.25;57.70;;;;;;;;;;5030927;28;20139;-58
2022/01/26 03:57:46;;;;;;;139.40;57.97;;;;;;;;;;5030819;28;20994;-59
2022/01/26 04:00:12;;;;;;;142.95;57.85;;;;;;;;;;5031322;28;20230;-58
2022/01/26 04:02:38;;;;;;;141.25;58.00;;;;;;;;;;5032686;28;20033;-59
2022/01/26 04:05:09;;;;;;;132.40;56.40;;;;;;;;;;5028786;28;20029;-58
2022/01/26 04:07:35;;;;;;;137.27;55.90;;;;;;;;;;5033627;28;20029;-58
2022/01/26 04:10:13;;;;;;;139.77;58.17;;;;;;;;;;5033756;28;20017;-59
2022/01/26 04:12:39;;;;;;;141.00;57.83;;;;;;;;;;5032067;28;20429;-58
2022/01/26 04:15:16;;;;;;;140.52;57.53;;;;;;;;;;5032479;28;20373;-59
2022/01/26 04:17:42;;;;;;;142.65;57.47;;;;;;;;;;5032212;28;20059;-59
2022/01/26 04:20:08;;;;;;;139.80;55.20;;;;;;;;;;5032893;28;20025;-58
2022/01/26 04:22:48;;;;;;;140.52;56.80;;;;;;;;;;5032818;28;20575;-59
2022/01/26 04:25:19;;;;;;;147.77;59.22;;;;;;;;;;5034058;28;20613;-59
2022/01/26 04:27:49;;;;;;;140.07;56.67;;;;;;;;;;5029559;28;20116;-59
2022/01/26 04:30:15;;;;;;;138.85;55.28;;;;;;;;;;5032543;28;20033;-58
2022/01/26 04:32:41;;;;;;;142.23;56.60;;;;;;;;;;5030334;28;20511;-59
2022/01/26 04:35:08;;;;;;;137.88;54.80;;;;;;;;;;5033914;28;20040;-59
2022/01/26 04:40:07;;;;;;;138.35;56.55;;;;;;;;;;5031444;28;20479;-58
2022/01/26 04:42:44;;;;;;;132.82;55.53;;;;;;;;;;5032294;28;20024;-58
2022/01/26 04:45:11;;;;;;;134.82;56.05;;;;;;;;;;5029407;28;20025;-59
2022/01/26 04:47:37;;;;;;;136.32;56.42;;;;;;;;;;5026259;28;20554;-59
2022/01/26 04:50:04;;;;;;;130.63;53.80;;;;;;;;;;5030521;28;20104;-59
2022/01/26 04:52:30;;;;;;;135.38;56.30;;;;;;;;;;5031334;28;20037;-60
2022/01/26 04:54:56;;;;;;;136.43;56.47;;;;;;;;;;5031020;28;20028;-60
2022/01/26 04:57:22;;;;;;;132.43;53.45;;;;;;;;;;5031462;28;20045;-59
2022/01/26 04:59:48;;;;;;;139.05;54.38;;;;;;;;;;5028941;28;20374;-58
2022/01/26 05:02:14;;;;;;;138.80;55.20;;;;;;;;;;5032897;28;20033;-58
2022/01/26 05:04:40;;;;;;;133.43;54.58;;;;;;;;;;5027806;28;20026;-59
2022/01/26 05:07:06;;;;;;;133.57;54.60;;;;;;;;;;5032667;28;20056;-59
2022/01/26 05:09:32;;;;;;;136.30;55.05;;;;;;;;;;5031730;28;20029;-58
2022/01/26 05:12:00;;;;;;;135.75;54.95;;;;;;;;;;5032175;28;20031;-58
2022/01/26 05:14:26;;;;;;;129.35;52.67;;;;;;;;;;5030975;28;20480;-59
2022/01/26 05:16:52;;;;;;;133.60;55.67;;;;;;;;;;5029497;28;20040;-58
2022/01/26 05:19:18;;;;;;;129.13;53.53;;;;;;;;;;5029466;28;20084;-59
2022/01/26 05:21:44;;;;;;;136.05;54.70;;;;;;;;;;5026714;28;20108;-59
2022/01/26 05:24:10;;;;;;;135.43;54.72;;;;;;;;;;5030478;28;20079;-59
2022/01/26 05:26:37;;;;;;;133.55;53.53;;;;;;;;;;5028919;28;20664;-58
2022/01/26 05:29:03;;;;;;;134.68;54.33;;;;;;;;;;5029866;28;20079;-59
2022/01/26 05:31:29;;;;;;;136.23;52.70;;;;;;;;;;5030563;28;20041;-59
2022/01/26 05:33:55;;;;;;;136.10;52.85;;;;;;;;;;5029453;28;20100;-59
2022/01/26 05:36:21;;;;;;;137.73;55.42;;;;;;;;;;5030031;28;20112;-59
2022/01/26 05:38:47;;;;;;;127.95;52.25;;;;;;;;;;5028514;28;20047;-58
2022/01/26 05:41:14;;;;;;;137.32;52.80;;;;;;;;;;5031865;28;20025;-59
2022/01/26 05:43:40;;;;;;;135.63;55.10;;;;;;;;;;5029450;28;20117;-58
2022/01/26 05:46:16;;;;;;;143.38;54.40;;;;;;;;;;5026438;28;20120;-58
2022/01/26 05:48:46;;;;;;;132.05;53.75;;;;;;;;;;5028830;28;20033;-58
2022/01/26 05:51:12;;;;;;;137.25;53.50;;;;;;;;;;5032600;28;20427;-59
2022/01/26 05:53:39;;;;;;;139.38;54.67;;;;;;;;;;5031952;28;20068;-59
2022/01/26 05:56:06;;;;;;;137.10;54.63;;;;;;;;;;5028518;28;20687;-59
2022/01/26 05:58:32;;;;;;;139.13;55.47;;;;;;;;;;5026264;28;20069;-58
2022/01/26 06:01:00;;;;;;;138.65;53.85;;;;;;;;;;5030628;28;20053;-58
2022/01/26 06:03:26;;;;;;;140.98;54.97;;;;;;;;;;5029074;28;20017;-59
2022/01/26 06:05:54;;;;;;;140.27;55.53;;;;;;;;;;5030236;28;20113;-59
2022/01/26 06:08:20;;;;;;;138.40;53.05;;;;;;;;;;5030316;28;20029;-58
2022/01/26 06:10:46;;;;;;;135.40;55.53;;;;;;;;;;5029966;28;20481;-58
2022/01/26 06:13:12;;;;;;;139.77;55.90;;;;;;;;;;5030077;28;20031;-59
2022/01/26 06:15:38;;;;;;;139.85;54.70;;;;;;;;;;5020475;28;20053;-59
2022/01/26 06:18:04;;;;;;;137.95;55.58;;;;;;;;;;5027600;28;20025;-59
2022/01/26 06:20:30;;;;;;;130.38;52.90;;;;;;;;;;5033755;28;20421;-59
2022/01/26 06:22:56;;;;;;;143.77;54.60;;;;;;;;;;5028525;28;20035;-58
2022/01/26 06:25:22;;;;;;;141.52;52.25;;;;;;;;;;5033743;28;20039;-57
2022/01/26 06:27:51;;;;;;;134.13;52.47;;;;;;;;;;5027880;28;20037;-59
2022/01/26 06:30:17;;;;;;;134.25;50.42;;;;;;;;;;5030753;28;20045;-58
2022/01/26 06:32:43;;;;;;;137.48;54.13;;;;;;;;;;5025536;28;20064;-58
2022/01/26 06:35:11;;;;;;;140.35;54.45;;;;;;;;;;5030390;28;20548;-59
2022/01/26 06:37:37;;;;;;;134.63;51.65;;;;;;;;;;5030996;28;20079;-59
2022/01/26 06:40:03;;;;;;;140.90;53.50;;;;;;;;;;5027484;28;20091;-59
2022/01/26 06:42:36;;;;;;;136.07;52.30;;;;;;;;;;5031884;28;20021;-60
2022/01/26 06:47:48;;;;;;;131.38;51.53;;;;;;;;;;5029321;28;20137;-58
2022/01/26 06:50:14;;;;;;;133.52;50.05;;;;;;;;;;5029000;28;20099;-59
2022/01/26 06:52:43;;;;;;;136.80;51.85;;;;;;;;;;5030872;28;20029;-58
2022/01/26 06:55:09;;;;;;;138.73;52.38;;;;;;;;;;5026590;28;20549;-58
2022/01/26 06:57:35;;;;;;;135.93;53.30;;;;;;;;;;5028560;28;20546;-58
2022/01/26 07:00:01;;;;;;;126.18;48.80;;;;;;;;;;5031380;28;20116;-58
2022/01/26 07:02:27;;;;;;;128.43;52.80;;;;;;;;;;5028242;28;20433;-59
2022/01/26 07:04:53;;;;;;;130.35;52.58;;;;;;;;;;5026838;28;20805;-59
2022/01/26 07:07:19;;;;;;;138.25;52.47;;;;;;;;;;5026759;28;20389;-60
2022/01/26 07:09:45;;;;;;;138.20;51.80;;;;;;;;;;5029473;28;20070;-59
2022/01/26 07:12:11;;;;;;;141.32;53.30;;;4.00;99.90;;;;;;5029109;28;20025;-60
2022/01/26 07:22:52;;;;;;;132.27;50.45;;;4.10;99.90;;;;;;5015512;28;20653;-60
2022/01/26 07:25:17;;;;;;;137.32;52.88;;;4.20;99.90;;;;;;5028310;28;20022;-60
2022/01/26 07:27:43;;;;;;;135.88;51.35;;;4.10;99.90;;;;;;5028610;28;20108;-60
2022/01/26 07:30:09;;;;;;;134.70;50.92;;;4.00;99.90;;;;;;5034425;28;20619;-60
2022/01/26 07:32:37;;;;;;;132.65;49.15;;;4.10;99.90;;;;;;5029434;28;20523;-60
2022/01/26 07:35:04;;;;;;;127.22;48.67;;;3.90;99.90;;;;;;5028857;28;20074;-59
2022/01/26 07:37:30;;;;;;;133.90;50.95;;;3.90;99.90;;;;;;5031606;28;21051;-60
2022/01/26 07:40:04;;;;;;;138.50;52.65;;;3.90;99.90;;;;;;5031586;28;20018;-59
2022/01/26 07:42:31;;;;;;;136.82;52.45;;;3.80;99.90;;;;;;5033413;28;20041;-60
2022/01/26 07:44:56;;;;;;;143.57;53.10;;;4.10;99.90;;;;;;5030364;28;20637;-60
2022/01/26 07:47:23;;;;;;;131.73;51.30;;;4.30;99.90;;;;;;5027665;28;20043;-60
2022/01/26 07:49:55;;;;;;;139.80;52.75;;;4.10;99.90;;;;;;5027286;28;20530;-60
2022/01/26 07:52:20;;;;;;;138.93;52.95;;;4.10;99.90;;;;;;5031135;28;20052;-60
2022/01/26 07:54:50;;;;;;;136.15;52.70;;;4.40;99.90;;;;;;5029962;28;20697;-60
2022/01/26 07:57:16;;;;;;;143.98;53.45;;;4.00;99.90;;;;;;5026756;28;20505;-60
2022/01/26 07:59:42;;;;;;;139.60;53.38;;;3.90;99.90;;;;;;5027186;28;20030;-59
2022/01/26 08:02:08;;;;;;;145.52;53.78;;;4.10;99.90;;;;;;5028887;28;20037;-59
2022/01/26 08:04:33;;;;;;;139.57;53.00;;;4.10;99.90;;;;;;5025265;28;20086;-60
2022/01/26 08:06:59;;;;;;;145.10;55.22;;;4.00;99.90;;;;;;5027145;28;20039;-59
2022/01/26 08:09:25;;;;;;;145.95;52.67;;;;;;;;;;5031304;28;20025;-59
2022/01/26 08:11:51;;;;;;;144.68;54.13;;;3.70;99.90;;;;;;5033491;28;20487;-59
2022/01/26 08:14:16;;;;;;;150.93;56.90;;;4.00;99.90;;;;;;5030481;28;20159;-60
2022/01/26 08:16:43;;;;;;;155.48;58.20;;;;;;;;;;5027258;28;20040;-60
2022/01/26 08:19:09;;;;;;;152.32;56.10;;;;;;;;;;5028071;28;20053;-59
2022/01/26 08:21:35;;;;;;;158.88;58.45;;;;;;;;;;5030936;28;20114;-60
2022/01/26 08:24:12;;;;;;;153.65;56.63;;;;;;;;;;5032304;28;20065;-59
2022/01/26 08:26:44;;;;;;;153.25;55.80;;;;;;;;;;5029234;28;20037;-59
2022/01/26 08:29:27;;;;;;;150.47;55.77;;;;;;;;;;5028600;28;20555;-60
2022/01/26 08:31:53;;;;;;;155.52;60.22;;;;;;;;;;5027432;28;20992;-60
2022/01/26 08:34:19;;;;;;;152.45;56.08;;;;;;;;;;5027899;28;20036;-60
2022/01/26 08:36:45;;;;;;;161.15;57.35;;;;;;;;;;5028377;28;20394;-59
2022/01/26 08:39:11;;;;;;;155.13;55.97;;;;;;;;;;5028478;28;20652;-60
2022/01/26 08:41:37;;;;;;;149.18;55.88;;;;;;;;;;5029727;28;20249;-60
2022/01/26 08:44:04;;;;;;;161.07;58.05;;;;;;;;;;5029580;28;20104;-59
2022/01/26 08:46:30;;;;;;;154.02;59.05;;;;;;;;;;5029754;28;20068;-60
2022/01/26 08:48:56;;;;;;;155.93;57.55;;;;;;;;;;5029918;28;20487;-61
2022/01/26 08:51:22;;;;;;;167.40;59.65;;;;;;;;;;5027531;28;20025;-59
2022/01/26 08:53:48;;;;;;;168.07;60.45;;;;;;;;;;5031914;28;20040;-59
2022/01/26 08:56:14;;;;;;;171.93;62.53;;;;;;;;;;5026851;28;20033;-60
2022/01/26 08:58:40;;;;;;;163.77;61.05;;;;;;;;;;5027651;28;20702;-60
2022/01/26 09:01:06;;;;;;;171.15;64.18;;;;;;;;;;5026558;28;20024;-60
2022/01/26 09:03:38;;;;;;;167.55;61.03;;;;;;;;;;5026622;28;20037;-59
2022/01/26 09:06:04;;;;;;;168.20;61.67;;;;;;;;;;5020458;28;20397;-60
2022/01/26 09:08:30;;;;;;;164.13;62.13;;;;;;;;;;5022704;28;20029;-59
2022/01/26 09:11:00;;;;;;;178.15;64.00;;;;;;;;;;5026355;28;20040;-59
2022/01/26 09:13:29;;;;;;;160.52;59.78;;;;;;;;;;5029494;28;20045;-60
2022/01/26 09:15:55;;;;;;;164.63;62.85;;;;;;;;;;5027332;28;20014;-60
2022/01/26 09:18:31;;;;;;;167.90;61.05;;;;;;;;;;5030006;28;20037;-59
2022/01/26 09:20:57;;;;;;;175.10;62.22;;;;;;;;;;5026333;28;20416;-60
2022/01/26 09:23:23;;;;;;;164.93;61.47;;;;;;;;;;5029741;28;20484;-60
2022/01/26 09:25:49;;;;;;;166.82;60.03;;;;;;;;;;5030574;28;20049;-60
2022/01/26 09:28:15;;;;;;;164.18;61.17;;;;;;;;;;5026353;28;20044;-59
2022/01/26 09:30:41;;;;;;;167.35;62.40;;;;;;;;;;5028572;28;20029;-60
2022/01/26 09:33:07;;;;;;;170.45;61.80;;;;;;;;;;5026715;28;20422;-60
2022/01/26 09:35:33;;;;;;;167.48;60.65;;;;;;;;;;5028587;28;20393;-60
2022/01/26 09:37:59;;;;;;;164.77;59.88;;;;;;;;;;5026562;28;20037;-60
2022/01/26 09:40:25;;;;;;;165.23;59.25;;;;;;;;;;5028815;28;20421;-60
2022/01/26 09:42:52;;;;;;;158.93;57.55;;;;;;;;;;5024601;28;20647;-59
2022/01/26 09:45:18;;;;;;;169.95;61.53;;;;;;;;;;5026563;28;20104;-60
2022/01/26 09:47:47;;;;;;;172.38;58.42;;;;;;;;;;5024430;28;20327;-59
2022/01/26 09:50:13;;;;;;;173.68;61.13;;;;;;;;;;5027232;28;20401;-59
2022/01/26 09:52:46;;;;;;;169.55;60.75;;;;;;;;;;5028450;28;20024;-60
2022/01/26 09:55:12;;;;;;;168.10;59.25;;;;;;;;;;5027198;28;20462;-60
2022/01/26 09:57:40;;;;;;;187.52;64.95;;;;;;;;;;5024148;28;20032;-60
2022/01/26 10:00:07;;;;;;;181.15;61.78;;;;;;;;;;5028867;28;20625;-60
2022/01/26 10:02:35;;;;;;;168.68;59.58;;;;;;;;;;5023881;28;20033;-59
2022/01/26 10:05:07;;;;;;;365.98;176.85;;;;;;;;;;5024598;28;20029;-59
2022/01/26 10:10:29;;;;;;;173.43;58.63;;;;;;;;;;5027951;28;20033;-59
2022/01/26 10:15:48;;;;;;;174.75;61.08;;;;;;;;;;5028219;28;20086;-59
2022/01/26 10:18:20;;;;;;;171.35;58.15;;;;;;;;;;5026983;28;20032;-59
2022/01/26 10:20:54;;;;;;;180.00;61.38;;;;;;;;;;5027683;28;20545;-60
2022/01/26 10:23:20;;;;;;;;;;;;;;;;;;5029519;28;20036;-59
2022/01/26 10:25:47;;;;;;;166.45;56.95;;;;;;;;;;5024375;28;19936;-59
2022/01/26 10:28:14;;;;;;;169.45;58.20;;;;;;;;;;5026577;28;20918;-60
2022/01/26 10:30:47;;;;;;;173.95;59.53;;;;;;;;;;5027035;28;20052;-59
2022/01/26 10:33:13;;;;;;;171.60;61.17;;;;;;;;;;5026223;28;20115;-59
2022/01/26 10:35:39;;;;;;;182.43;61.05;;;;;;;;;;5026322;28;20038;-60
2022/01/26 10:38:06;;;;;;;175.75;58.53;;;;;;;;;;5026069;28;20040;-60
2022/01/26 10:40:32;;;;;;;170.07;57.85;;;;;;;;;;5026560;28;20603;-59
2022/01/26 10:43:04;;;;;;;181.20;59.97;;;;;;;;;;5025912;28;20128;-59
2022/01/26 10:45:33;;;;;;;169.45;58.70;;;;;;;;;;5028352;28;20513;-59
2022/01/26 10:48:25;;;;;;;181.50;61.05;;;;;;;;;;5028773;28;20498;-59
2022/01/26 10:53:36;;;;;;;169.30;56.47;;;;;;;;;;5027469;28;20087;-59
2022/01/26 10:56:02;;;;;;;171.82;58.90;;;;;;;;;;5028636;28;20038;-59
2022/01/26 10:58:28;;;;;;;170.32;56.97;;;;;;;;;;5030196;28;20513;-60
2022/01/26 11:00:55;;;;;;;161.65;56.47;;;;;;;;;;5028581;28;20131;-59
2022/01/26 11:03:21;;;;;;;172.55;56.20;;;;;;;;;;5028462;28;20036;-59
2022/01/26 11:05:47;;;;;;;165.00;56.33;;;;;;;;;;5029916;28;20037;-59
2022/01/26 11:08:14;;;;;;;164.63;55.47;;;;;;;;;;5030180;28;20101;-60
2022/01/26 11:10:40;;;;;;;162.23;56.65;;;;;;;;;;5030609;28;20028;-59
2022/01/26 11:13:06;;;;;;;165.38;55.70;;;;;;;;;;5029372;28;20021;-58
2022/01/26 11:15:32;;;;;;;159.50;57.05;;;;;;;;;;5030370;28;20061;-59
2022/01/26 11:18:20;;;;;;;156.88;53.30;;;;;;;;;;5028364;28;20033;-59
2022/01/26 11:20:51;;;;;;;149.70;50.58;;;;;;;;;;5030068;28;20654;-59
2022/01/26 11:23:21;;;;;;;158.75;51.35;;;;;;;;;;5028234;28;20029;-59
2022/01/26 11:25:48;;;;;;;151.98;52.80;;;;;;;;;;5029602;28;20493;-60
2022/01/26 11:28:24;;;;;;;150.75;52.10;;;;;;;;;;5027041;28;20025;-59
2022/01/26 11:30:51;;;;;;;157.95;55.70;;;;;;;;;;5029385;28;20037;-60
2022/01/26 11:33:23;;;;;;;172.73;54.90;;;;;;;;;;5027194;28;20020;-59
2022/01/26 11:35:51;;;;;;;151.20;52.45;;;;;;;;;;5028315;28;20018;-59
2022/01/26 11:46:31;;;;;;;169.85;55.30;;;;;;;;;;5028844;28;20127;-59
2022/01/26 11:49:07;;;;;;;144.07;51.22;;;;;;;;;;5026788;28;20088;-59
2022/01/26 11:51:41;;;;;;;146.95;51.40;;;;;;;;;;5031405;28;20102;-60
2022/01/26 11:54:10;;;;;;;153.60;53.20;;;;;;;;;;5028567;28;20040;-59
2022/01/26 11:56:37;;;;;;;156.23;52.05;;;;;;;;;;5029303;28;20033;-59
2022/01/26 11:59:03;;;;;;;152.93;53.40;;;;;;;;;;5027935;28;20135;-59
2022/01/26 12:01:39;;;;;;;148.82;52.58;;;;;;;;;;5028770;28;20051;-60
2022/01/26 12:04:11;;;;;;;151.55;51.58;;;;;;;;;;5030508;28;20743;-59
2022/01/26 12:06:43;;;;;;;153.82;49.67;;;;;;;;;;5027947;28;20079;-59
2022/01/26 12:09:10;;;;;;;159.82;53.45;;;;;;;;;;5023897;28;20028;-60
2022/01/26 12:11:36;;;;;;;160.50;52.97;;;;;;;;;;5025870;28;20033;-59
2022/01/26 12:14:03;;;;;;;147.98;49.85;;;;;;;;;;5027766;28;20032;-59
2022/01/26 12:16:39;;;;;;;150.00;49.92;;;;;;;;;;5030129;28;20396;-59
2022/01/26 12:36:13;;;;;;;130.63;47.40;;;;;;;;;;5028847;28;20025;-59
2022/01/26 12:38:51;;;;;;;133.52;47.83;;;;;;;;;;5021929;28;20512;-59
2022/01/26 12:41:25;;;;;;;135.18;47.55;;;;;;;;;;5025379;28;20044;-59
2022/01/26 12:43:55;;;;;;;130.07;46.25;;;;;;;;;;5027241;28;20037;-59
2022/01/26 12:46:22;;;;;;;122.78;45.40;;;;;;;;;;5028818;28;20380;-59
2022/01/26 12:48:50;;;;;;;123.75;44.80;;;;;;;;;;5028229;28;20494;-59
2022/01/26 12:51:16;;;;;;;126.05;44.10;;;;;;;;;;5030017;28;20035;-59
2022/01/26 12:53:42;;;;;;;139.52;55.47;;;;;;;;;;5027745;28;20063;-61
2022/01/26 12:56:10;;;;;;;129.80;45.92;;;;;;;;;;5029207;28;20480;-59
2022/01/26 12:58:37;;;;;;;120.07;44.53;;;;;;;;;;5030211;28;20032;-60
2022/01/26 13:01:05;;;;;;;119.78;44.30;;;;;;;;;;5023994;28;20043;-59
2022/01/26 13:03:33;;;;;;;125.63;43.20;;;;;;;;;;5028950;28;20481;-59
2022/01/26 13:06:06;;;;;;;126.72;45.67;;;;;;;;;;5029939;28;20077;-59
2022/01/26 13:08:32;;;;;;;;;;;;;;;;;;5029839;28;20113;-59
2022/01/26 13:11:04;;;;;;;112.43;40.42;;;;;;;;;;5029052;28;20012;-59
2022/01/26 13:13:34;;;;;;;117.18;43.13;;;;;;;;;;5028812;28;20102;-59
2022/01/26 13:16:11;;;;;;;115.43;42.15;;;;;;;;;;5028666;28;20550;-59
2022/01/26 13:18:59;;;;;;;114.43;41.42;;;;;;;;;;5026908;28;20041;-59
2022/01/26 13:24:29;;;;;;;118.05;41.03;;;;;;;;;;5029527;28;20429;-59
2022/01/26 13:27:09;;;;;;;108.32;39.55;;;;;;;;;;5028103;28;20040;-58
2022/01/26 13:29:50;;;;;;;108.32;39.85;;;;;;;;;;5026299;28;20393;-59
2022/01/26 13:32:49;;;;;;;112.10;41.33;;;;;;;;;;5027936;28;20025;-60
2022/01/26 13:35:17;;;;;;;109.00;40.22;;;;;;;;;;5029473;28;20032;-59
2022/01/26 13:40:56;;;;;;;109.93;41.45;;;;;;;;;;5028562;28;20041;-59
2022/01/26 13:54:52;;;;;;;118.07;42.00;;;4.60;99.90;;;;;;5029933;28;20499;-59
2022/01/26 13:59:16;;;;;;;110.50;43.15;;;4.80;99.90;;;;;;5025755;28;20029;-59
2022/01/26 14:01:45;;;;;;;105.70;41.15;;;4.70;99.90;;;;;;5028682;28;20029;-59
2022/01/26 14:04:12;;;;;;;106.22;42.50;;;4.70;99.90;;;;;;5028719;28;20997;-60
2022/01/26 14:06:38;;;;;;;105.95;41.08;;;4.70;99.90;;;;;;5026008;28;20481;-59
2022/01/26 14:09:04;;;;;;;105.78;42.58;;;4.60;99.90;;;;;;5026592;28;20116;-59
2022/01/26 14:11:29;;;;;;;111.40;43.40;;;4.60;99.90;;;;;;5029720;28;20067;-59
2022/01/26 14:13:57;;;;;;;107.20;43.75;;;4.80;99.90;;;;;;5028342;28;20132;-59
2022/01/26 14:16:25;;;;;;;107.00;42.80;;;4.80;99.90;;;;;;5029739;28;20033;-59
2022/01/26 14:21:40;;;;;;;106.72;43.25;;;4.80;99.90;;;;;;5030370;28;20051;-60
2022/01/26 14:24:26;;;;;;;109.38;42.08;;;4.80;99.90;;;;;;5029699;28;20021;-59
2022/01/26 14:26:55;;;;;;;112.25;42.80;;;4.90;99.90;;;;;;5025791;28;20079;-59
2022/01/26 14:29:52;;;;;;;105.85;41.95;;;4.80;99.90;;;;;;5027980;28;20776;-59
2022/01/26 14:35:18;;;;;;;103.70;42.70;;;5.00;99.90;;;;;;5026581;28;20056;-59
2022/01/26 14:40:45;;;;;;;113.32;41.88;;;5.20;99.90;;;;;;5033675;28;20128;-59
2022/01/26 14:50:58;;;;;;;107.28;43.15;;;4.80;99.90;;;;;;5032142;28;20036;-59
2022/01/26 14:51:53;;;;;;;104.85;43.03;;;4.70;99.90;;;;;;5030401;28;20044;-60
2022/01/26 14:54:30;;;;;;;104.97;42.33;;;4.80;99.90;;;;;;5029302;28;20033;-59
2022/01/26 15:33:11;;;;;;;107.53;41.72;;;5.40;99.90;;;;;;5031451;28;20303;-59
2022/01/26 15:43:40;;;;;;;104.50;39.55;;;4.90;99.90;;;;;;5032742;28;20080;-59
2022/01/26 15:49:09;;;;;;;97.93;40.42;;;4.80;99.90;;;;;;5029507;28;20111;-60
2022/01/26 16:07:41;;;;;;;95.32;40.00;;;4.60;99.90;;;;;;5031620;28;20034;-59
2022/01/26 16:26:29;;;;;;;101.80;41.47;;;4.80;99.90;;;;;;5032543;28;20070;-59
2022/01/26 16:37:44;;;;;;;119.03;52.92;;;4.20;99.90;;;;;;5031770;28;20040;-59
2022/01/26 17:24:23;;;;;;;99.30;42.13;;;4.70;99.90;;;;;;5028226;28;20136;-59
2022/01/26 18:13:15;;;;;;;105.13;40.78;;;4.50;99.90;;;;;;5029364;28;20052;-59
2022/01/26 18:15:55;;;;;;;100.03;42.65;;;4.50;99.90;;;;;;5028384;28;20025;-59
2022/01/26 18:26:32;;;;;;;102.85;40.53;;;4.50;99.90;;;;;;5030837;28;20064;-59
2022/01/26 18:31:57;;;;;;;101.32;39.70;;;4.50;99.90;;;;;;5027151;28;20092;-59
2022/01/26 18:51:03;;;;;;;94.57;39.05;;;4.60;99.90;;;;;;5029672;28;20037;-58
2022/01/26 18:53:29;;;;;;;90.28;36.83;;;4.50;99.90;;;;;;5027468;28;20180;-59
2022/01/26 18:55:55;;;;;;;87.53;38.00;;;4.40;99.90;;;;;;5028612;28;20210;-59
2022/01/26 18:58:20;;;;;;;86.88;35.92;;;4.40;99.90;;;;;;5026556;28;20021;-59
2022/01/26 19:00:46;;;;;;;86.10;37.28;;;4.40;99.90;;;;;;5025673;28;20616;-59
2022/01/26 19:03:13;;;;;;;85.25;37.33;;;4.50;99.90;;;;;;5025228;28;20048;-58
2022/01/26 19:05:39;;;;;;;87.90;36.63;;;4.40;99.90;;;;;;5027848;28;20022;-59
2022/01/26 19:08:05;;;;;;;83.63;35.13;;;4.40;99.90;;;;;;5028148;28;20014;-59
2022/01/26 19:10:30;;;;;;;87.38;36.95;;;4.40;99.90;;;;;;5027719;28;20586;-58
2022/01/26 19:12:56;;;;;;;84.70;36.25;;;4.50;99.90;;;;;;5028152;28;20052;-59
2022/01/26 19:15:26;;;;;;;79.28;34.75;;;4.40;99.90;;;;;;5027811;28;20392;-59
2022/01/26 19:18:01;;;;;;;82.35;34.85;;;4.40;99.90;;;;;;5025080;28;20033;-59
2022/01/26 19:20:58;;;;;;;79.10;34.38;;;4.50;99.90;;;;;;5028769;28;20116;-59
2022/01/26 19:25:44;;;;;;;85.20;36.10;;;4.30;99.90;;;;;;5035400;28;20044;-58
2022/01/26 19:28:16;;;;;;;78.00;33.42;;;4.30;99.90;;;;;;5030848;28;20029;-59
2022/01/26 19:40:00;;;;;;;78.72;32.28;;;4.20;99.90;;;;;;5033154;28;20129;-58
2022/01/26 19:44:39;;;;;;;72.60;32.50;;;4.40;99.90;;;;;;5032460;28;20503;-59
2022/01/26 19:47:16;;;;;;;69.95;30.98;;;4.50;99.90;;;;;;5030170;28;20017;-58
2022/01/26 19:52:27;;;;;;;73.43;31.27;;;4.50;99.90;;;;;;5033725;28;20063;-58
2022/01/26 19:54:54;;;;;;;71.10;31.42;;;4.60;99.90;;;;;;5030136;28;20029;-59
2022/01/26 19:57:20;;;;;;;76.72;32.78;;;4.40;99.90;;;;;;5031123;28;20504;-59
2022/01/26 19:59:46;;;;;;;75.43;31.33;;;4.40;99.90;;;;;;5031105;28;20040;-58
2022/01/26 20:02:12;;;;;;;72.85;31.10;;;4.40;99.90;;;;;;5031235;28;20044;-59
2022/01/26 20:04:39;;;;;;;72.88;31.95;;;4.50;99.90;;;;;;5033093;28;20033;-59
2022/01/26 20:07:11;;;;;;;66.53;30.60;;;4.40;99.90;;;;;;5029219;28;20776;-59
2022/01/26 20:09:48;;;;;;;68.82;30.40;;;4.40;99.90;;;;;;5029684;28;20406;-58
2022/01/26 20:12:27;;;;;;;70.22;30.08;;;4.50;99.90;;;;;;5029196;28;20025;-59
2022/01/26 20:14:55;;;;;;;69.63;29.85;;;4.40;99.90;;;;;;5029171;28;20596;-58